sensor_id;sensor_type;location;lat;lon;timestamp;pressure;altitude;pressure_sealevel;temperature;humidity
7026;BME280;3554;42.132;24.786;2023-09-12T00:00:08;99485.72;;;18.16;100.00
7026;BME280;3554;42.132;24.786;2023-09-12T00:02:35;99482.94;;;18.18;100.00
7026;BME280;3554;42.132;24.786;2023-09-12T00:05:02;99483.81;;;18.18;100.00
7026;BME280;3554;42.132;24.786;2023-09-12T00:07:29;99480.19;;;18.19;100.00
7026;BME280;3554;42.132;24.786;2023-09-12T00:09:56;99479.88;;;18.24;100.00
7026;BME280;3554;42.132;24.786;2023-09-12T00:12:23;99480.69;;;18.25;100.00
7026;BME280;3554;42.132;24.786;2023-09-12T00:14:52;99487.09;;;18.22;100.00
7026;BME280;3554;42.132;24.786;2023-09-12T00:17:19;99486.34;;;18.20;100.00
7026;BME280;3554;42.132;24.786;2023-09-12T00:19:45;99490.59;;;18.23;100.00
7026;BME280;3554;42.132;24.786;2023-09-12T00:22:12;99491.53;;;18.22;100.00
7026;BME280;3554;42.132;24.786;2023-09-12T00:24:39;99495.16;;;18.21;100.00
7026;BME280;3554;42.132;24.786;2023-09-12T00:27:06;99486.88;;;18.12;100.00
7026;BME280;3554;42.132;24.786;2023-09-12T00:29:32;99491.34;;;18.12;100.00
7026;BME280;3554;42.132;24.786;2023-09-12T00:32:00;99487.94;;;18.10;100.00
7026;BME280;3554;42.132;24.786;2023-09-12T00:34:27;99494.06;;;18.10;100.00
7026;BME280;3554;42.132;24.786;2023-09-12T00:36:54;99491.34;;;18.12;100.00
7026;BME280;3554;42.132;24.786;2023-09-12T00:39:21;99497.78;;;18.08;100.00
7026;BME280;3554;42.132;24.786;2023-09-12T00:41:47;99498.53;;;18.10;100.00
7026;BME280;3554;42.132;24.786;2023-09-12T00:44:14;99493.44;;;18.07;100.00
7026;BME280;3554;42.132;24.786;2023-09-12T00:46:41;99479.25;;;17.95;100.00
7026;BME280;3554;42.132;24.786;2023-09-12T00:49:12;99480.81;;;17.98;100.00
7026;BME280;3554;42.132;24.786;2023-09-12T00:51:40;99489.41;;;18.01;100.00
7026;BME280;3554;42.132;24.786;2023-09-12T00:54:07;99486.03;;;17.99;100.00
7026;BME280;3554;42.132;24.786;2023-09-12T00:56:34;99488.06;;;17.96;100.00
7026;BME280;3554;42.132;24.786;2023-09-12T00:59:01;99492.78;;;17.91;100.00
7026;BME280;3554;42.132;24.786;2023-09-12T01:01:29;99494.91;;;17.86;100.00
7026;BME280;3554;42.132;24.786;2023-09-12T01:03:55;99492.38;;;17.84;100.00
7026;BME280;3554;42.132;24.786;2023-09-12T01:06:24;99490.22;;;17.77;100.00
7026;BME280;3554;42.132;24.786;2023-09-12T01:08:53;99494.72;;;17.76;100.00
7026;BME280;3554;42.132;24.786;2023-09-12T01:11:20;99467.56;;;17.60;100.00
7026;BME280;3554;42.132;24.786;2023-09-12T01:13:47;99499.97;;;17.64;100.00
7026;BME280;3554;42.132;24.786;2023-09-12T01:16:13;99496.59;;;17.62;100.00
7026;BME280;3554;42.132;24.786;2023-09-12T01:18:40;99496.88;;;17.57;100.00
7026;BME280;3554;42.132;24.786;2023-09-12T01:21:38;99500.38;;;17.58;100.00
7026;BME280;3554;42.132;24.786;2023-09-12T01:24:23;99494.00;;;17.48;100.00
7026;BME280;3554;42.132;24.786;2023-09-12T01:27:15;99498.28;;;17.36;100.00
7026;BME280;3554;42.132;24.786;2023-09-12T01:29:46;99458.81;;;17.06;100.00
7026;BME280;3554;42.132;24.786;2023-09-12T01:32:14;99501.03;;;17.35;100.00
7026;BME280;3554;42.132;24.786;2023-09-12T01:34:41;99503.88;;;17.32;100.00
7026;BME280;3554;42.132;24.786;2023-09-12T01:37:07;99503.66;;;17.35;100.00
7026;BME280;3554;42.132;24.786;2023-09-12T01:39:34;99498.47;;;17.33;100.00
7026;BME280;3554;42.132;24.786;2023-09-12T01:42:01;99502.59;;;17.25;100.00
7026;BME280;3554;42.132;24.786;2023-09-12T01:44:31;99506.06;;;17.25;100.00
7026;BME280;3554;42.132;24.786;2023-09-12T01:47:02;99462.72;;;17.01;100.00
7026;BME280;3554;42.132;24.786;2023-09-12T01:49:30;99507.88;;;17.25;100.00
7026;BME280;3554;42.132;24.786;2023-09-12T01:51:59;99500.44;;;17.17;100.00
7026;BME280;3554;42.132;24.786;2023-09-12T01:54:26;99452.66;;;16.79;100.00
7026;BME280;3554;42.132;24.786;2023-09-12T01:56:54;99500.00;;;17.10;100.00
7026;BME280;3554;42.132;24.786;2023-09-12T01:59:23;99512.91;;;17.15;100.00
7026;BME280;3554;42.132;24.786;2023-09-12T02:01:51;99515.75;;;17.12;100.00
7026;BME280;3554;42.132;24.786;2023-09-12T02:04:17;99512.66;;;17.05;100.00
7026;BME280;3554;42.132;24.786;2023-09-12T02:06:44;99506.88;;;17.13;100.00
7026;BME280;3554;42.132;24.786;2023-09-12T02:09:11;99506.88;;;17.13;100.00
7026;BME280;3554;42.132;24.786;2023-09-12T02:11:38;99515.44;;;17.17;100.00
7026;BME280;3554;42.132;24.786;2023-09-12T02:14:04;99512.25;;;17.11;100.00
7026;BME280;3554;42.132;24.786;2023-09-12T02:16:31;99499.53;;;17.04;100.00
7026;BME280;3554;42.132;24.786;2023-09-12T02:19:00;99508.41;;;17.03;100.00
7026;BME280;3554;42.132;24.786;2023-09-12T02:21:26;99512.66;;;17.05;100.00
7026;BME280;3554;42.132;24.786;2023-09-12T02:23:53;99505.03;;;17.01;100.00
7026;BME280;3554;42.132;24.786;2023-09-12T02:26:20;99505.94;;;17.00;100.00
7026;BME280;3554;42.132;24.786;2023-09-12T02:28:46;99504.38;;;16.97;100.00
7026;BME280;3554;42.132;24.786;2023-09-12T02:31:13;99510.59;;;16.96;100.00
7026;BME280;3554;42.132;24.786;2023-09-12T02:33:40;99500.00;;;16.96;100.00
7026;BME280;3554;42.132;24.786;2023-09-12T02:36:08;99504.16;;;17.00;100.00
7026;BME280;3554;42.132;24.786;2023-09-12T02:38:35;99505.66;;;17.04;100.00
7026;BME280;3554;42.132;24.786;2023-09-12T02:41:02;99509.06;;;17.06;100.00
7026;BME280;3554;42.132;24.786;2023-09-12T02:43:29;99508.09;;;17.07;100.00
7026;BME280;3554;42.132;24.786;2023-09-12T02:45:56;99512.47;;;17.08;100.00
7026;BME280;3554;42.132;24.786;2023-09-12T02:48:22;99507.94;;;17.10;100.00
7026;BME280;3554;42.132;24.786;2023-09-12T02:50:49;99505.66;;;17.04;100.00
7026;BME280;3554;42.132;24.786;2023-09-12T02:53:17;99490.34;;;16.83;100.00
7026;BME280;3554;42.132;24.786;2023-09-12T02:55:44;99506.41;;;16.80;100.00
7026;BME280;3554;42.132;24.786;2023-09-12T02:58:10;99505.38;;;16.68;100.00
7026;BME280;3554;42.132;24.786;2023-09-12T03:00:38;99501.63;;;16.58;100.00
7026;BME280;3554;42.132;24.786;2023-09-12T03:03:05;99506.69;;;16.61;100.00
7026;BME280;3554;42.132;24.786;2023-09-12T03:05:32;99488.09;;;16.63;100.00
7026;BME280;3554;42.132;24.786;2023-09-12T03:07:58;99506.69;;;16.75;100.00
7026;BME280;3554;42.132;24.786;2023-09-12T03:10:26;99511.03;;;16.76;100.00
7026;BME280;3554;42.132;24.786;2023-09-12T03:12:53;99503.97;;;16.63;100.00
7026;BME280;3554;42.132;24.786;2023-09-12T03:15:20;99507.09;;;16.55;100.00
7026;BME280;3554;42.132;24.786;2023-09-12T03:17:47;99511.88;;;16.63;100.00
7026;BME280;3554;42.132;24.786;2023-09-12T03:20:13;99518.59;;;16.68;100.00
7026;BME280;3554;42.132;24.786;2023-09-12T03:22:40;99505.47;;;16.67;100.00
7026;BME280;3554;42.132;24.786;2023-09-12T03:25:07;99515.84;;;16.70;100.00
7026;BME280;3554;42.132;24.786;2023-09-12T03:27:35;99514.34;;;16.66;100.00
7026;BME280;3554;42.132;24.786;2023-09-12T03:30:03;99518.78;;;16.65;100.00
7026;BME280;3554;42.132;24.786;2023-09-12T03:32:30;99519.16;;;16.59;100.00
7026;BME280;3554;42.132;24.786;2023-09-12T03:34:56;99525.97;;;16.63;100.00
7026;BME280;3554;42.132;24.786;2023-09-12T03:37:23;99524.28;;;16.62;100.00
7026;BME280;3554;42.132;24.786;2023-09-12T03:39:52;99526.16;;;16.60;100.00
7026;BME280;3554;42.132;24.786;2023-09-12T03:42:19;99529.06;;;16.56;100.00
7026;BME280;3554;42.132;24.786;2023-09-12T03:44:47;99515.19;;;16.52;100.00
7026;BME280;3554;42.132;24.786;2023-09-12T03:47:14;99521.72;;;16.47;100.00
7026;BME280;3554;42.132;24.786;2023-09-12T03:49:40;99527.59;;;16.52;100.00
7026;BME280;3554;42.132;24.786;2023-09-12T03:52:09;99533.41;;;16.43;100.00
7026;BME280;3554;42.132;24.786;2023-09-12T03:54:35;99520.25;;;16.41;100.00
7026;BME280;3554;42.132;24.786;2023-09-12T03:57:03;99538.69;;;16.43;100.00
7026;BME280;3554;42.132;24.786;2023-09-12T03:59:30;99540.56;;;16.41;100.00
7026;BME280;3554;42.132;24.786;2023-09-12T04:01:58;99544.34;;;16.37;100.00
7026;BME280;3554;42.132;24.786;2023-09-12T04:04:24;99547.44;;;16.29;100.00
7026;BME280;3554;42.132;24.786;2023-09-12T04:06:51;99554.44;;;16.30;100.00
7026;BME280;3554;42.132;24.786;2023-09-12T04:09:21;99554.03;;;16.22;100.00
7026;BME280;3554;42.132;24.786;2023-09-12T04:11:48;99524.22;;;16.06;100.00
7026;BME280;3554;42.132;24.786;2023-09-12T04:14:14;99546.22;;;16.21;100.00
7026;BME280;3554;42.132;24.786;2023-09-12T04:16:41;99541.59;;;16.10;100.00
7026;BME280;3554;42.132;24.786;2023-09-12T04:19:09;99507.03;;;15.85;100.00
7026;BME280;3554;42.132;24.786;2023-09-12T04:21:36;99545.31;;;15.92;100.00
7026;BME280;3554;42.132;24.786;2023-09-12T04:24:03;99548.16;;;15.89;100.00
7026;BME280;3554;42.132;24.786;2023-09-12T04:26:30;99539.84;;;15.95;100.00
7026;BME280;3554;42.132;24.786;2023-09-12T04:28:57;99544.03;;;16.13;100.00
7026;BME280;3554;42.132;24.786;2023-09-12T04:31:23;99522.25;;;16.24;100.00
7026;BME280;3554;42.132;24.786;2023-09-12T04:33:50;99543.34;;;16.53;100.00
7026;BME280;3554;42.132;24.786;2023-09-12T04:36:19;99545.69;;;16.72;100.00
7026;BME280;3554;42.132;24.786;2023-09-12T04:38:46;99544.06;;;16.83;100.00
7026;BME280;3554;42.132;24.786;2023-09-12T04:41:13;99548.84;;;17.05;100.00
7026;BME280;3554;42.132;24.786;2023-09-12T04:43:42;99541.03;;;17.30;100.00
7026;BME280;3554;42.132;24.786;2023-09-12T04:46:09;99533.97;;;17.43;100.00
7026;BME280;3554;42.132;24.786;2023-09-12T04:48:36;99545.19;;;17.73;100.00
7026;BME280;3554;42.132;24.786;2023-09-12T04:51:03;99557.06;;;17.80;100.00
7026;BME280;3554;42.132;24.786;2023-09-12T04:53:31;99552.34;;;17.98;100.00
7026;BME280;3554;42.132;24.786;2023-09-12T04:56:00;99555.56;;;18.15;100.00
7026;BME280;3554;42.132;24.786;2023-09-12T04:58:27;99545.16;;;18.38;100.00
7026;BME280;3554;42.132;24.786;2023-09-12T05:00:54;99542.41;;;18.39;100.00
7026;BME280;3554;42.132;24.786;2023-09-12T05:03:21;99552.41;;;18.48;100.00
7026;BME280;3554;42.132;24.786;2023-09-12T05:05:48;99542.44;;;18.52;100.00
7026;BME280;3554;42.132;24.786;2023-09-12T05:08:15;99537.84;;;18.66;100.00
7026;BME280;3554;42.132;24.786;2023-09-12T05:10:45;99547.31;;;18.58;100.00
7026;BME280;3554;42.132;24.786;2023-09-12T05:13:11;99546.22;;;18.73;100.00
7026;BME280;3554;42.132;24.786;2023-09-12T05:15:40;99561.06;;;18.75;100.00
7026;BME280;3554;42.132;24.786;2023-09-12T05:18:07;99556.81;;;18.85;100.00
7026;BME280;3554;42.132;24.786;2023-09-12T05:20:34;99548.22;;;18.82;100.00
7026;BME280;3554;42.132;24.786;2023-09-12T05:23:01;99548.38;;;19.04;100.00
7026;BME280;3554;42.132;24.786;2023-09-12T05:25:28;99551.38;;;19.23;100.00
7026;BME280;3554;42.132;24.786;2023-09-12T05:27:56;99551.06;;;19.28;100.00
7026;BME280;3554;42.132;24.786;2023-09-12T05:30:23;99551.31;;;19.48;100.00
7026;BME280;3554;42.132;24.786;2023-09-12T05:32:50;99553.63;;;19.53;100.00
7026;BME280;3554;42.132;24.786;2023-09-12T05:35:17;99562.56;;;19.75;100.00
7026;BME280;3554;42.132;24.786;2023-09-12T05:37:43;99535.81;;;19.66;100.00
7026;BME280;3554;42.132;24.786;2023-09-12T05:40:10;99551.91;;;19.99;100.00
7026;BME280;3554;42.132;24.786;2023-09-12T05:42:37;99558.28;;;19.96;100.00
7026;BME280;3554;42.132;24.786;2023-09-12T05:45:06;99559.31;;;19.83;100.00
7026;BME280;3554;42.132;24.786;2023-09-12T05:47:33;99538.59;;;19.99;100.00
7026;BME280;3554;42.132;24.786;2023-09-12T05:50:00;99548.59;;;19.95;100.00
7026;BME280;3554;42.132;24.786;2023-09-12T05:52:29;99552.34;;;19.93;100.00
7026;BME280;3554;42.132;24.786;2023-09-12T05:54:56;99547.00;;;20.16;100.00
7026;BME280;3554;42.132;24.786;2023-09-12T05:57:23;99530.84;;;20.31;100.00
7026;BME280;3554;42.132;24.786;2023-09-12T05:59:50;99542.00;;;20.12;100.00
7026;BME280;3554;42.132;24.786;2023-09-12T06:02:18;99543.41;;;20.29;100.00
7026;BME280;3554;42.132;24.786;2023-09-12T06:04:44;99547.16;;;20.37;100.00
7026;BME280;3554;42.132;24.786;2023-09-12T06:07:11;99548.84;;;20.38;100.00
7026;BME280;3554;42.132;24.786;2023-09-12T06:09:38;99547.97;;;20.27;100.00
7026;BME280;3554;42.132;24.786;2023-09-12T06:12:06;99554.06;;;20.40;100.00
7026;BME280;3554;42.132;24.786;2023-09-12T06:14:32;99555.75;;;20.74;100.00
7026;BME280;3554;42.132;24.786;2023-09-12T06:16:59;99560.47;;;20.81;100.00
7026;BME280;3554;42.132;24.786;2023-09-12T06:19:27;99563.41;;;21.00;100.00
7026;BME280;3554;42.132;24.786;2023-09-12T06:21:54;99569.00;;;21.29;100.00
7026;BME280;3554;42.132;24.786;2023-09-12T06:24:21;99574.47;;;21.27;100.00
7026;BME280;3554;42.132;24.786;2023-09-12T06:26:48;99568.41;;;21.25;100.00
7026;BME280;3554;42.132;24.786;2023-09-12T06:29:15;99570.84;;;21.28;100.00
7026;BME280;3554;42.132;24.786;2023-09-12T06:31:42;99573.97;;;21.45;100.00
7026;BME280;3554;42.132;24.786;2023-09-12T06:34:09;99570.22;;;21.36;100.00
7026;BME280;3554;42.132;24.786;2023-09-12T06:36:38;99577.25;;;21.69;100.00
7026;BME280;3554;42.132;24.786;2023-09-12T06:39:06;99573.44;;;21.93;100.00
7026;BME280;3554;42.132;24.786;2023-09-12T06:41:33;99571.13;;;22.00;100.00
7026;BME280;3554;42.132;24.786;2023-09-12T06:44:00;99577.59;;;21.75;100.00
7026;BME280;3554;42.132;24.786;2023-09-12T06:46:28;99567.88;;;21.96;100.00
7026;BME280;3554;42.132;24.786;2023-09-12T06:48:55;99580.13;;;21.88;100.00
7026;BME280;3554;42.132;24.786;2023-09-12T06:51:24;99572.88;;;21.79;100.00
7026;BME280;3554;42.132;24.786;2023-09-12T06:53:52;99574.31;;;21.83;100.00
7026;BME280;3554;42.132;24.786;2023-09-12T06:56:19;99576.75;;;21.75;100.00
7026;BME280;3554;42.132;24.786;2023-09-12T06:58:47;99569.91;;;21.61;100.00
7026;BME280;3554;42.132;24.786;2023-09-12T07:01:13;99576.03;;;22.04;100.00
7026;BME280;3554;42.132;24.786;2023-09-12T07:03:57;99565.13;;;22.28;100.00
7026;BME280;3554;42.132;24.786;2023-09-12T07:06:24;99569.81;;;22.56;100.00
7026;BME280;3554;42.132;24.786;2023-09-12T07:08:52;99571.75;;;22.75;100.00
7026;BME280;3554;42.132;24.786;2023-09-12T07:11:19;99578.22;;;22.82;100.00
7026;BME280;3554;42.132;24.786;2023-09-12T07:13:46;99576.72;;;22.98;100.00
7026;BME280;3554;42.132;24.786;2023-09-12T07:16:12;99579.31;;;23.09;100.00
7026;BME280;3554;42.132;24.786;2023-09-12T07:18:39;99580.50;;;22.86;100.00
7026;BME280;3554;42.132;24.786;2023-09-12T07:21:06;99579.72;;;23.05;100.00
7026;BME280;3554;42.132;24.786;2023-09-12T07:23:33;99574.59;;;23.32;100.00
7026;BME280;3554;42.132;24.786;2023-09-12T07:26:01;99579.44;;;23.48;100.00
7026;BME280;3554;42.132;24.786;2023-09-12T07:28:29;99576.78;;;23.48;100.00
7026;BME280;3554;42.132;24.786;2023-09-12T07:30:56;99570.28;;;23.50;100.00
7026;BME280;3554;42.132;24.786;2023-09-12T07:33:23;99573.28;;;23.57;100.00
7026;BME280;3554;42.132;24.786;2023-09-12T07:35:52;99550.34;;;23.64;100.00
7026;BME280;3554;42.132;24.786;2023-09-12T07:38:20;99579.63;;;23.94;100.00
7026;BME280;3554;42.132;24.786;2023-09-12T07:40:47;99569.34;;;23.70;100.00
7026;BME280;3554;42.132;24.786;2023-09-12T07:43:15;99564.41;;;23.56;100.00
7026;BME280;3554;42.132;24.786;2023-09-12T07:45:41;99573.09;;;23.49;100.00
7026;BME280;3554;42.132;24.786;2023-09-12T07:48:09;99565.69;;;23.62;100.00
7026;BME280;3554;42.132;24.786;2023-09-12T07:50:36;99549.19;;;23.66;100.00
7026;BME280;3554;42.132;24.786;2023-09-12T07:53:04;99569.63;;;23.67;100.00
7026;BME280;3554;42.132;24.786;2023-09-12T07:55:31;99560.91;;;23.94;100.00
7026;BME280;3554;42.132;24.786;2023-09-12T07:58:01;99561.75;;;24.04;100.00
7026;BME280;3554;42.132;24.786;2023-09-12T08:00:29;99554.69;;;23.65;100.00
7026;BME280;3554;42.132;24.786;2023-09-12T08:02:56;99558.75;;;23.78;100.00
7026;BME280;3554;42.132;24.786;2023-09-12T08:05:23;99555.94;;;23.61;100.00
7026;BME280;3554;42.132;24.786;2023-09-12T08:07:49;99555.81;;;23.72;100.00
7026;BME280;3554;42.132;24.786;2023-09-12T08:10:16;99525.72;;;23.70;100.00
7026;BME280;3554;42.132;24.786;2023-09-12T08:12:43;99543.56;;;23.98;100.00
7026;BME280;3554;42.132;24.786;2023-09-12T08:15:10;99523.44;;;24.13;100.00
7026;BME280;3554;42.132;24.786;2023-09-12T08:17:38;99544.53;;;24.35;100.00
7026;BME280;3554;42.132;24.786;2023-09-12T08:20:06;99552.97;;;24.40;100.00
7026;BME280;3554;42.132;24.786;2023-09-12T08:22:35;99548.09;;;23.88;100.00
7026;BME280;3554;42.132;24.786;2023-09-12T08:25:02;99548.53;;;24.12;100.00
7026;BME280;3554;42.132;24.786;2023-09-12T08:27:29;99548.06;;;23.78;100.00
7026;BME280;3554;42.132;24.786;2023-09-12T08:29:56;99538.91;;;23.43;100.00
7026;BME280;3554;42.132;24.786;2023-09-12T08:32:22;99545.41;;;23.59;100.00
7026;BME280;3554;42.132;24.786;2023-09-12T08:34:50;99542.72;;;23.59;100.00
7026;BME280;3554;42.132;24.786;2023-09-12T08:37:17;99536.69;;;23.76;100.00
7026;BME280;3554;42.132;24.786;2023-09-12T08:39:44;99519.91;;;24.12;100.00
7026;BME280;3554;42.132;24.786;2023-09-12T08:42:13;99524.19;;;24.52;100.00
7026;BME280;3554;42.132;24.786;2023-09-12T08:44:40;99535.13;;;24.77;100.00
7026;BME280;3554;42.132;24.786;2023-09-12T08:47:08;99533.31;;;23.93;100.00
7026;BME280;3554;42.132;24.786;2023-09-12T08:49:35;99534.72;;;23.88;100.00
7026;BME280;3554;42.132;24.786;2023-09-12T08:52:04;99531.06;;;24.08;100.00
7026;BME280;3554;42.132;24.786;2023-09-12T08:54:31;99529.75;;;24.31;100.00
7026;BME280;3554;42.132;24.786;2023-09-12T08:56:59;99526.38;;;24.75;100.00
7026;BME280;3554;42.132;24.786;2023-09-12T08:59:28;99529.50;;;24.98;100.00
7026;BME280;3554;42.132;24.786;2023-09-12T09:01:55;99535.91;;;25.14;100.00
7026;BME280;3554;42.132;24.786;2023-09-12T09:04:23;99535.97;;;25.22;100.00
7026;BME280;3554;42.132;24.786;2023-09-12T09:06:52;99541.56;;;25.38;100.00
7026;BME280;3554;42.132;24.786;2023-09-12T09:09:21;99534.47;;;25.47;100.00
7026;BME280;3554;42.132;24.786;2023-09-12T09:11:49;99536.47;;;25.63;100.00
7026;BME280;3554;42.132;24.786;2023-09-12T09:14:16;99535.59;;;25.80;100.00
7026;BME280;3554;42.132;24.786;2023-09-12T09:16:42;99522.56;;;25.50;92.97
7026;BME280;3554;42.132;24.786;2023-09-12T09:19:09;99537.00;;;25.49;96.31
7026;BME280;3554;42.132;24.786;2023-09-12T09:21:37;99530.94;;;25.47;94.23
7026;BME280;3554;42.132;24.786;2023-09-12T09:24:07;99512.94;;;25.29;94.61
7026;BME280;3554;42.132;24.786;2023-09-12T09:26:47;99531.63;;;25.66;91.49
7026;BME280;3554;42.132;24.786;2023-09-12T09:29:15;99522.88;;;25.82;91.01
7026;BME280;3554;42.132;24.786;2023-09-12T09:31:43;99521.94;;;25.91;89.04
7026;BME280;3554;42.132;24.786;2023-09-12T09:34:11;99476.72;;;25.96;98.08
7026;BME280;3554;42.132;24.786;2023-09-12T09:36:41;99493.50;;;25.98;88.00
7026;BME280;3554;42.132;24.786;2023-09-12T09:39:09;99509.81;;;26.22;88.30
7026;BME280;3554;42.132;24.786;2023-09-12T09:41:37;99506.44;;;26.20;87.53
7026;BME280;3554;42.132;24.786;2023-09-12T09:44:07;99506.84;;;26.33;89.81
7026;BME280;3554;42.132;24.786;2023-09-12T09:46:35;99491.91;;;26.30;87.03
7026;BME280;3554;42.132;24.786;2023-09-12T09:49:02;99499.31;;;26.36;81.92
7026;BME280;3554;42.132;24.786;2023-09-12T09:51:30;99496.53;;;26.46;84.76
7026;BME280;3554;42.132;24.786;2023-09-12T09:53:58;99492.75;;;26.31;80.43
7026;BME280;3554;42.132;24.786;2023-09-12T09:56:26;99498.75;;;26.25;81.40
7026;BME280;3554;42.132;24.786;2023-09-12T09:58:53;99502.06;;;26.44;83.13
7026;BME280;3554;42.132;24.786;2023-09-12T10:01:23;99450.00;;;26.37;84.08
7026;BME280;3554;42.132;24.786;2023-09-12T10:03:51;99499.94;;;26.90;84.47
7026;BME280;3554;42.132;24.786;2023-09-12T10:06:19;99492.47;;;27.09;83.24
7026;BME280;3554;42.132;24.786;2023-09-12T10:08:50;99495.69;;;26.71;75.82
7026;BME280;3554;42.132;24.786;2023-09-12T10:11:19;99487.06;;;26.34;82.74
7026;BME280;3554;42.132;24.786;2023-09-12T10:13:52;99481.28;;;26.47;84.54
7026;BME280;3554;42.132;24.786;2023-09-12T10:16:22;99481.63;;;26.85;83.81
7026;BME280;3554;42.132;24.786;2023-09-12T10:18:57;99466.25;;;27.03;84.70
7026;BME280;3554;42.132;24.786;2023-09-12T10:21:29;99480.78;;;27.34;80.44
7026;BME280;3554;42.132;24.786;2023-09-12T10:23:58;99438.38;;;27.20;73.51
7026;BME280;3554;42.132;24.786;2023-09-12T10:26:25;99470.75;;;27.44;74.50
7026;BME280;3554;42.132;24.786;2023-09-12T10:28:54;99470.72;;;27.53;76.82
7026;BME280;3554;42.132;24.786;2023-09-12T10:31:23;99465.84;;;27.56;75.67
7026;BME280;3554;42.132;24.786;2023-09-12T10:33:51;99454.44;;;27.70;72.08
7026;BME280;3554;42.132;24.786;2023-09-12T10:36:18;99464.34;;;27.62;72.71
7026;BME280;3554;42.132;24.786;2023-09-12T10:38:48;99465.19;;;27.70;76.57
7026;BME280;3554;42.132;24.786;2023-09-12T10:41:15;99464.69;;;27.67;72.06
7026;BME280;3554;42.132;24.786;2023-09-12T10:43:44;99456.94;;;27.72;71.81
7026;BME280;3554;42.132;24.786;2023-09-12T10:46:15;99456.63;;;27.91;74.40
7026;BME280;3554;42.132;24.786;2023-09-12T10:48:43;99450.91;;;28.02;74.50
7026;BME280;3554;42.132;24.786;2023-09-12T10:51:11;99445.84;;;28.07;72.92
7026;BME280;3554;42.132;24.786;2023-09-12T10:53:39;99446.34;;;28.10;71.09
7026;BME280;3554;42.132;24.786;2023-09-12T10:56:16;99439.78;;;28.13;72.89
7026;BME280;3554;42.132;24.786;2023-09-12T10:59:11;99432.91;;;28.10;74.63
7026;BME280;3554;42.132;24.786;2023-09-12T11:01:39;99434.22;;;27.90;72.01
7026;BME280;3554;42.132;24.786;2023-09-12T11:04:33;99423.50;;;27.82;72.48
7026;BME280;3554;42.132;24.786;2023-09-12T11:07:43;99423.50;;;27.74;71.74
7026;BME280;3554;42.132;24.786;2023-09-12T11:10:21;99427.03;;;27.59;72.80
7026;BME280;3554;42.132;24.786;2023-09-12T11:12:50;99427.03;;;27.59;74.14
7026;BME280;3554;42.132;24.786;2023-09-12T11:15:18;99412.72;;;27.58;72.75
7026;BME280;3554;42.132;24.786;2023-09-12T11:17:45;99410.91;;;27.59;71.37
7026;BME280;3554;42.132;24.786;2023-09-12T11:20:15;99372.88;;;27.29;72.78
7026;BME280;3554;42.132;24.786;2023-09-12T11:22:43;99374.41;;;27.48;71.47
7026;BME280;3554;42.132;24.786;2023-09-12T11:25:17;99412.56;;;27.92;72.54
7026;BME280;3554;42.132;24.786;2023-09-12T11:27:46;99390.69;;;27.95;72.63
7026;BME280;3554;42.132;24.786;2023-09-12T11:30:28;99404.47;;;28.00;72.80
7026;BME280;3554;42.132;24.786;2023-09-12T11:32:57;99406.81;;;27.95;70.08
7026;BME280;3554;42.132;24.786;2023-09-12T11:35:26;99406.28;;;27.91;71.23
7026;BME280;3554;42.132;24.786;2023-09-12T11:37:54;99411.84;;;27.90;69.87
7026;BME280;3554;42.132;24.786;2023-09-12T11:40:23;99390.84;;;27.93;70.14
7026;BME280;3554;42.132;24.786;2023-09-12T11:42:51;99391.34;;;27.81;71.67
7026;BME280;3554;42.132;24.786;2023-09-12T11:45:20;99371.34;;;27.83;70.89
7026;BME280;3554;42.132;24.786;2023-09-12T11:47:49;99387.81;;;28.04;71.29
7026;BME280;3554;42.132;24.786;2023-09-12T11:50:30;99389.81;;;28.10;70.67
7026;BME280;3554;42.132;24.786;2023-09-12T11:53:02;99354.34;;;27.83;71.17
7026;BME280;3554;42.132;24.786;2023-09-12T11:55:31;99383.94;;;27.99;72.19
7026;BME280;3554;42.132;24.786;2023-09-12T11:57:58;99366.28;;;27.88;73.13
7026;BME280;3554;42.132;24.786;2023-09-12T12:00:25;99372.13;;;28.16;71.61
7026;BME280;3554;42.132;24.786;2023-09-12T12:02:52;99381.53;;;28.20;70.11
7026;BME280;3554;42.132;24.786;2023-09-12T12:05:20;99381.50;;;28.28;70.12
7026;BME280;3554;42.132;24.786;2023-09-12T12:07:49;99303.25;;;27.67;68.20
7026;BME280;3554;42.132;24.786;2023-09-12T12:10:16;99359.03;;;28.05;69.37
7026;BME280;3554;42.132;24.786;2023-09-12T12:12:44;99349.75;;;28.07;67.18
7026;BME280;3554;42.132;24.786;2023-09-12T12:15:12;99332.97;;;27.97;67.83
7026;BME280;3554;42.132;24.786;2023-09-12T12:17:40;99354.59;;;28.20;69.43
7026;BME280;3554;42.132;24.786;2023-09-12T12:20:09;99303.00;;;28.08;66.81
7026;BME280;3554;42.132;24.786;2023-09-12T12:22:36;99347.66;;;28.33;66.74
7026;BME280;3554;42.132;24.786;2023-09-12T12:25:07;99330.78;;;28.39;64.96
7026;BME280;3554;42.132;24.786;2023-09-12T12:27:36;99338.34;;;28.44;66.10
7026;BME280;3554;42.132;24.786;2023-09-12T12:30:04;99342.78;;;28.29;68.22
7026;BME280;3554;42.132;24.786;2023-09-12T12:32:31;99334.28;;;28.48;65.82
7026;BME280;3554;42.132;24.786;2023-09-12T12:34:58;99324.81;;;28.60;66.87
7026;BME280;3554;42.132;24.786;2023-09-12T12:37:28;99314.34;;;28.65;65.92
7026;BME280;3554;42.132;24.786;2023-09-12T12:39:57;99341.06;;;28.75;64.52
7026;BME280;3554;42.132;24.786;2023-09-12T12:42:25;99335.13;;;28.79;63.53
7026;BME280;3554;42.132;24.786;2023-09-12T12:44:53;99336.69;;;28.74;65.13
7026;BME280;3554;42.132;24.786;2023-09-12T12:47:21;99326.16;;;28.64;64.52
7026;BME280;3554;42.132;24.786;2023-09-12T12:49:50;99314.81;;;28.91;63.75
7026;BME280;3554;42.132;24.786;2023-09-12T12:52:22;99321.06;;;28.92;62.70
7026;BME280;3554;42.132;24.786;2023-09-12T12:54:49;99322.91;;;28.91;63.26
7026;BME280;3554;42.132;24.786;2023-09-12T12:57:18;99331.38;;;28.88;64.13
7026;BME280;3554;42.132;24.786;2023-09-12T12:59:47;99311.31;;;28.91;62.27
7026;BME280;3554;42.132;24.786;2023-09-12T13:02:16;99312.19;;;29.06;64.68
7026;BME280;3554;42.132;24.786;2023-09-12T13:04:44;99317.47;;;28.99;65.37
7026;BME280;3554;42.132;24.786;2023-09-12T13:07:11;99310.06;;;29.01;64.39